Rincon, Texas
Current Conditions -  °F | °C
As of 11:15 AM on Thursday 27 Nov 2014 (Local Time) from KEBG Reporting Station
Clear Clear  
Wind Chill: 73°   Ceiling: Unl
Heat Index: 73°   Visibility: 10mi
Dew Point: 51°   Wind: 5mph
Humidity: 46%   Direction: 200°SSW
Pressure: 30.44"   Gusts: NA
Location:  26.5735°N, 98.695°W
Report Text: KEBG 271715Z AUTO 20004KT 10SM CLR 23/11 A3044 RMK AO2 T02280105
Loading
Personal Weather Stations






























Interactive Weather Map New forecast layout! Learn more

10-Day Weather Forecast

Advertisements
Track Severe Weather on mobile